Levelland, TX (79336)

6:04 AM CDT on June 03, 2015 (GMT -0500)
South Smyer | | Change Station
CLOSE
Current Station
Personal Weather Station
Location: Smyer, TX
Elevation: 3366 ft
Nearby Weather Stations

Elev 3366 ft 33.57 °N, 102.16 °W | Updated 1 second ago

Clear
Clear
63.7 °F
Feels Like 63.7 °F
N
5.1
Wind Variable Wind from SSE
Gusts 7.4 mph

Today
High -- | Low -- °F
--% Chance of Precip.
Yesterday
High -- | Low -- °F
Precip. -- in
6:39 AM 8:55 PM
Full, 99% visible
Pressure 29.75 in
Visibility 10.0 miles
Clouds Few 15000 ft
Few 25000 ft
Dew Point 63 °F
Humidity 97%
Rainfall 0.00 in
Snow Depth Not available.
UV 0 out of 12
Pollen 4.60 out of 12
Air Quality Not available.
Flu Activity Local Activity
METAR KLBB 031053Z 18007KT 10SM FEW150 FEW250 18/17 A2990 RMK AO2 SLP073 T01830167

More Conditions Fewer Conditions

Pressure 29.75 in
Visibility 10.0 miles
Clouds Few 15000 ft
Few 25000 ft
Dew Point 63 °F
Humidity 97%
Rainfall 0.00 in
Snow Depth Not available.
UV 0 out of 12
Pollen 4.60 out of 12
Air Quality Not available.
Flu Activity Local Activity
METAR KLBB 031053Z 18007KT 10SM FEW150 FEW250 18/17 A2990 RMK AO2 SLP073 T01830167

More Conditions Fewer Conditions

10-Day Weather Forecast

×

Almanac

Astronomy

Jun. 03, 2015 Rise Set
Actual Time
Civil Twilight
Nautical Twilight
Astronomical Twilight
Moon
Length of Visible Light
Length of Day
Tomorrow will be .
, % of the Moon is Illuminated

Today's Extremes

State Highs State Lows

Community

WunderPhotos

Upload Photos

1,826,198 photos uploaded!

WunderBlogs® & News

Nearby

Air Quality

  Air Quality AQ Index Pollutant
Not available.

Snow Depth

Station Depth Elevation

Earthquake Activity

City Distance Mag. Time & Date
Minimum magnitude displayed is 2.5.

Coastal Water Temperatures

Place Temperature

Stations

Nearby Weather Stations

Station Location Temp. Windchill Dew Point Humidity Wind Precip. Elev Updated Type